Time;durP1;ratioP1;P1;durP2;ratioP2;P2;SDS_P1;SDS_P2;PMS_P1;PMS_P2;Temp;Humidity;BMP_temperature;BMP_pressure;BME280_temperature;BME280_humidity;BME280_pressure;Samples;Min_cycle;Max_cycle;Signal;HPM_P1;HPM_P2
2022/07/30 00:02:12;;;;;;;7.43;2.90;;;15.10;99.90;;;;;;5072453;28;20040;-80
2022/07/30 00:04:38;;;;;;;13.00;3.45;;;14.70;99.90;;;;;;5072170;28;20127;-79
2022/07/30 00:07:04;;;;;;;7.40;3.05;;;14.60;99.90;;;;;;5072428;28;20140;-80
2022/07/30 00:09:30;;;;;;;4.53;2.88;;;14.60;99.90;;;;;;5053926;28;20474;-80
2022/07/30 00:11:55;;;;;;;4.70;3.33;;;14.70;99.90;;;;;;5072128;28;20044;-80
2022/07/30 00:14:21;;;;;;;6.95;3.80;;;14.80;99.90;;;;;;5072107;28;20052;-79
2022/07/30 00:16:46;;;;;;;6.25;3.47;;;14.30;99.90;;;;;;5071897;28;20442;-81
2022/07/30 00:19:12;;;;;;;8.68;3.67;;;14.40;99.90;;;;;;5053553;28;20043;-80
2022/07/30 00:21:38;;;;;;;6.95;3.33;;;14.40;99.90;;;;;;5072106;28;20048;-80
2022/07/30 00:24:04;;;;;;;7.07;3.35;;;14.50;99.90;;;;;;5053251;28;20048;-81
2022/07/30 00:26:31;;;;;;;7.93;3.10;;;14.30;99.90;;;;;;5068611;28;20138;-81
2022/07/30 00:28:57;;;;;;;5.60;3.13;;;14.30;99.90;;;;;;5091852;28;20542;-80
2022/07/30 00:31:22;;;;;;;6.35;2.95;;;14.20;99.90;;;;;;5091922;28;20054;-80
2022/07/30 00:33:48;;;;;;;5.05;3.17;;;14.20;99.90;;;;;;5091740;28;20109;-81
2022/07/30 00:36:13;;;;;;;5.53;3.92;;;14.10;99.90;;;;;;5091908;28;20055;-80
2022/07/30 00:38:39;;;;;;;4.55;3.40;;;14.10;99.90;;;;;;5092112;28;20089;-80
2022/07/30 00:41:05;;;;;;;5.25;3.78;;;14.10;99.90;;;;;;5072856;28;20048;-80
2022/07/30 00:43:31;;;;;;;7.65;3.80;;;14.20;99.90;;;;;;5091556;28;20411;-80
2022/07/30 00:45:56;;;;;;;6.60;3.60;;;14.10;99.90;;;;;;5091460;28;20040;-80
2022/07/30 00:48:22;;;;;;;6.95;3.78;;;14.50;99.90;;;;;;5073827;28;20044;-80
2022/07/30 00:50:48;;;;;;;8.65;3.95;;;14.00;99.90;;;;;;5091398;28;20048;-81
2022/07/30 00:53:13;;;;;;;21.25;5.47;;;14.00;99.90;;;;;;5091529;28;20040;-80
2022/07/30 00:55:39;;;;;;;8.50;4.00;;;14.10;99.90;;;;;;5072804;28;20048;-81
2022/07/30 00:58:05;;;;;;;6.10;3.83;;;13.80;99.90;;;;;;5091375;28;20052;-81
2022/07/30 01:00:30;;;;;;;6.80;4.20;;;14.10;99.90;;;;;;5091259;28;20052;-81
2022/07/30 01:02:56;;;;;;;6.93;4.20;;;13.80;99.90;;;;;;5091344;28;20143;-78
2022/07/30 01:05:22;;;;;;;6.20;3.80;;;13.80;99.90;;;;;;5091377;28;20043;-81
2022/07/30 01:07:47;;;;;;;5.95;3.50;;;13.70;99.90;;;;;;5091291;28;20040;-81
2022/07/30 01:10:14;;;;;;;5.65;3.78;;;13.70;99.90;;;;;;5073376;28;20059;-82
2022/07/30 01:12:42;;;;;;;6.53;3.67;;;13.80;99.90;;;;;;5090854;28;20134;-80
2022/07/30 01:15:09;;;;;;;11.63;4.53;;;14.10;99.90;;;;;;5090921;28;20047;-80
2022/07/30 01:17:35;;;;;;;8.73;4.60;;;13.70;99.90;;;;;;5072730;28;20044;-79
2022/07/30 01:20:12;;;;;;;10.63;4.35;;;13.90;99.90;;;;;;5090995;28;20044;-79
2022/07/30 01:22:58;;;;;;;5.65;4.28;;;13.40;99.90;;;;;;5091260;28;20055;-79
2022/07/30 01:25:30;;;;;;;6.95;3.97;;;13.30;99.90;;;;;;5066952;28;20080;-80
2022/07/30 01:28:00;;;;;;;6.72;4.57;;;13.30;99.90;;;;;;5070078;28;20087;-80
2022/07/30 01:30:28;;;;;;;6.57;3.50;;;13.40;99.90;;;;;;5070714;28;20067;-80
2022/07/30 01:32:56;;;;;;;7.70;4.50;;;13.20;99.90;;;;;;5052608;28;20081;-79
2022/07/30 01:35:24;;;;;;;8.75;4.40;;;13.20;99.90;;;;;;5070584;28;20072;-80
2022/07/30 01:37:52;;;;;;;8.80;3.50;;;13.70;99.90;;;;;;5052643;28;20414;-80
2022/07/30 01:40:18;;;;;;;9.55;4.15;;;13.40;99.90;;;;;;5052662;28;20051;-80
2022/07/30 01:42:47;;;;;;;6.80;4.57;;;13.10;99.90;;;;;;5069955;28;20193;-79
2022/07/30 01:45:14;;;;;;;13.60;4.90;;;13.00;99.90;;;;;;5070429;28;20118;-81
2022/07/30 01:47:42;;;;;;;8.52;5.82;;;13.00;99.90;;;;;;5052331;28;20447;-79
2022/07/30 01:50:14;;;;;;;9.55;4.72;;;13.10;99.90;;;;;;5069939;28;20056;-79
2022/07/30 01:52:42;;;;;;;6.93;4.85;;;13.10;99.90;;;;;;5069552;28;20079;-80
2022/07/30 01:55:11;;;;;;;7.97;4.50;;;13.20;99.90;;;;;;5070117;28;20079;-81
2022/07/30 01:57:38;;;;;;;10.18;4.68;;;13.10;99.90;;;;;;5069631;28;20040;-79
2022/07/30 02:00:06;;;;;;;7.13;4.40;;;13.20;99.90;;;;;;5070206;28;20408;-81
2022/07/30 02:02:34;;;;;;;9.30;5.88;;;12.90;99.90;;;;;;5052328;28;20429;-80
2022/07/30 02:05:00;;;;;;;7.22;4.78;;;13.00;99.90;;;;;;5069970;28;20063;-81
2022/07/30 02:07:47;;;;;;;10.23;6.13;;;13.10;99.90;;;;;;5070059;28;20037;-81
2022/07/30 02:10:41;;;;;;;13.68;5.07;;;12.90;99.90;;;;;;5052266;28;20571;-80
2022/07/30 02:13:09;;;;;;;8.00;5.55;;;12.80;99.90;;;;;;5042990;28;20037;-80
2022/07/30 02:15:41;;;;;;;8.90;5.45;;;12.70;99.90;;;;;;5069923;28;20084;-80
2022/07/30 02:18:20;;;;;;;6.53;4.78;;;12.90;99.90;;;;;;5033946;28;20092;-80
2022/07/30 02:20:53;;;;;;;9.95;4.63;;;12.70;99.90;;;;;;5069046;28;20067;-81
2022/07/30 02:23:20;;;;;;;10.35;4.93;;;12.60;99.90;;;;;;5051799;28;20056;-80
2022/07/30 02:25:49;;;;;;;9.20;5.80;;;12.60;99.90;;;;;;5059734;28;20064;-80
2022/07/30 02:28:18;;;;;;;7.43;4.95;;;12.90;99.90;;;;;;5089824;28;20044;-80
2022/07/30 02:30:48;;;;;;;7.68;4.60;;;12.90;99.90;;;;;;5089649;28;20074;-80
2022/07/30 02:33:17;;;;;;;9.52;5.60;;;12.50;99.90;;;;;;5089450;28;20140;-81
2022/07/30 02:35:44;;;;;;;11.10;5.68;;;12.50;99.90;;;;;;5089672;28;20047;-80
2022/07/30 02:38:12;;;;;;;7.97;5.00;;;12.40;99.90;;;;;;5089786;28;20040;-80
2022/07/30 02:40:42;;;;;;;7.85;4.95;;;12.40;99.90;;;;;;5089457;28;20044;-80
2022/07/30 02:43:08;;;;;;;8.75;5.40;;;12.60;99.90;;;;;;5071597;28;20442;-80
2022/07/30 02:45:36;;;;;;;8.68;4.35;;;12.40;99.90;;;;;;5071101;28;20286;-80
2022/07/30 02:48:05;;;;;;;12.65;4.70;;;12.70;99.90;;;;;;5071806;28;20048;-81
2022/07/30 02:50:32;;;;;;;5.28;3.97;;;12.50;99.90;;;;;;5071333;28;20130;-81
2022/07/30 02:53:00;;;;;;;7.05;4.40;;;12.50;99.90;;;;;;5089867;28;20098;-81
2022/07/30 02:55:29;;;;;;;6.40;4.00;;;12.50;99.90;;;;;;5089533;28;20093;-80
2022/07/30 02:57:55;;;;;;;11.30;4.82;;;12.30;99.90;;;;;;5089493;28;20064;-79
2022/07/30 03:00:23;;;;;;;8.43;4.22;;;12.30;99.90;;;;;;5089195;28;20721;-80
2022/07/30 03:02:51;;;;;;;7.95;4.00;;;12.30;99.90;;;;;;5072018;28;20143;-80
2022/07/30 03:05:17;;;;;;;7.72;4.95;;;12.70;99.90;;;;;;5075234;28;20048;-80
2022/07/30 03:07:45;;;;;;;7.35;4.22;;;12.30;99.90;;;;;;5075489;28;20051;-80
2022/07/30 03:10:11;;;;;;;7.88;4.78;;;12.20;99.90;;;;;;5093221;28;20118;-81
2022/07/30 03:12:39;;;;;;;9.15;4.72;;;12.30;99.90;;;;;;5074904;28;20048;-80
2022/07/30 03:15:05;;;;;;;9.73;5.20;;;12.20;99.90;;;;;;5092718;28;20044;-81
2022/07/30 03:17:37;;;;;;;7.30;5.90;;;12.00;99.90;;;;;;5093222;28;20040;-80
2022/07/30 03:20:09;;;;;;;8.05;5.13;;;12.00;99.90;;;;;;5092435;28;20046;-80
2022/07/30 03:22:40;;;;;;;10.45;5.68;;;12.00;99.90;;;;;;5074947;28;20083;-79
2022/07/30 03:25:08;;;;;;;8.48;6.25;;;12.10;99.90;;;;;;5092978;28;20051;-80
2022/07/30 03:27:37;;;;;;;7.47;6.55;;;12.00;99.90;;;;;;5093098;28;20088;-80
2022/07/30 03:30:04;;;;;;;13.80;6.85;;;12.00;99.90;;;;;;5093219;28;20047;-81
2022/07/30 03:32:31;;;;;;;9.95;6.20;;;12.00;99.90;;;;;;5092792;28;20052;-80
2022/07/30 03:34:58;;;;;;;10.82;6.88;;;12.00;99.90;;;;;;5074850;28;20123;-79
2022/07/30 03:37:25;;;;;;;14.90;6.78;;;11.90;99.90;;;;;;5093093;28;20043;-80
2022/07/30 03:39:52;;;;;;;11.10;7.20;;;12.00;99.90;;;;;;5093082;28;20040;-79
2022/07/30 03:42:18;;;;;;;8.85;6.90;;;12.00;99.90;;;;;;5092744;28;20037;-80
2022/07/30 03:44:44;;;;;;;11.68;6.63;;;12.10;99.90;;;;;;5093027;28;20081;-81
2022/07/30 03:47:11;;;;;;;12.63;6.30;;;12.00;99.90;;;;;;5074630;28;20056;-80
2022/07/30 03:49:37;;;;;;;8.10;6.10;;;12.00;99.90;;;;;;5092745;28;20047;-81
2022/07/30 03:52:03;;;;;;;6.60;5.55;;;12.00;99.90;;;;;;5092992;28;20032;-79
2022/07/30 03:54:32;;;;;;;7.15;5.43;;;11.80;99.90;;;;;;5092939;28;20489;-82
2022/07/30 03:57:02;;;;;;;8.15;5.20;;;11.80;99.90;;;;;;5092656;28;20036;-80
2022/07/30 03:59:29;;;;;;;8.93;6.30;;;11.70;99.90;;;;;;5092795;28;20050;-78
2022/07/30 04:02:02;;;;;;;10.55;7.07;;;11.80;99.90;;;;;;5092485;28;20086;-79
2022/07/30 04:04:29;;;;;;;7.70;6.28;;;11.80;99.90;;;;;;5092961;28;20478;-80
2022/07/30 04:06:56;;;;;;;9.45;6.07;;;11.80;99.90;;;;;;5074312;28;20396;-80
2022/07/30 04:09:22;;;;;;;8.45;5.90;;;11.90;99.90;;;;;;5073581;28;20565;-80
2022/07/30 04:11:47;;;;;;;11.68;5.95;;;11.80;99.90;;;;;;5091780;28;20040;-80
2022/07/30 04:14:13;;;;;;;9.10;6.07;;;11.80;99.90;;;;;;5090704;28;20048;-80
2022/07/30 04:17:01;;;;;;;9.90;5.82;;;11.80;99.90;;;;;;5091873;28;20044;-80
2022/07/30 04:19:42;;;;;;;7.57;6.28;;;11.80;99.90;;;;;;5073538;28;20135;-78
2022/07/30 04:22:09;;;;;;;8.05;7.10;;;11.90;99.90;;;;;;5053857;28;20158;-79
2022/07/30 04:24:37;;;;;;;7.93;6.10;;;11.90;99.90;;;;;;5071927;28;20052;-79
2022/07/30 04:27:03;;;;;;;14.05;8.07;;;11.90;99.90;;;;;;5076928;28;20059;-79
2022/07/30 04:29:29;;;;;;;11.95;7.03;;;11.80;99.90;;;;;;5072787;28;20044;-80
2022/07/30 04:31:55;;;;;;;9.70;8.02;;;11.80;99.90;;;;;;5091360;28;20044;-80
2022/07/30 04:34:21;;;;;;;12.25;7.72;;;11.90;99.90;;;;;;5090720;28;20048;-80
2022/07/30 04:36:46;;;;;;;9.80;6.88;;;12.00;99.90;;;;;;5072880;28;20059;-80
2022/07/30 04:39:12;;;;;;;13.13;6.13;;;12.00;99.90;;;;;;5090173;28;20082;-80
2022/07/30 04:41:38;;;;;;;8.95;6.57;;;12.00;99.90;;;;;;5089877;28;20446;-80
2022/07/30 04:44:04;;;;;;;7.88;6.18;;;12.00;99.90;;;;;;5090602;28;20143;-80
2022/07/30 04:46:30;;;;;;;13.95;8.65;;;12.00;99.90;;;;;;5090539;28;20056;-80
2022/07/30 04:48:55;;;;;;;13.52;8.23;;;12.10;99.90;;;;;;5090225;28;20388;-80
2022/07/30 04:51:35;;;;;;;12.10;8.98;;;12.10;99.90;;;;;;5090046;28;20384;-80
2022/07/30 04:54:04;;;;;;;13.73;8.57;;;12.50;99.90;;;;;;5090691;28;20062;-80
2022/07/30 04:56:31;;;;;;;13.48;9.32;;;12.20;99.90;;;;;;5090680;28;20048;-80
2022/07/30 04:58:57;;;;;;;12.75;10.27;;;12.30;99.90;;;;;;5072388;28;20467;-79
2022/07/30 05:01:26;;;;;;;11.70;8.38;;;12.50;99.90;;;;;;5090219;28;20075;-77
2022/07/30 05:03:52;;;;;;;11.38;9.48;;;12.50;99.90;;;;;;5089872;28;20080;-80
2022/07/30 05:06:20;;;;;;;11.27;8.55;;;12.50;99.90;;;;;;5089958;28;20050;-80
2022/07/30 05:08:46;;;;;;;10.15;8.32;;;12.50;99.90;;;;;;5090075;28;20040;-79
2022/07/30 05:11:13;;;;;;;12.73;9.45;;;12.60;99.90;;;;;;5072150;28;20446;-78
2022/07/30 05:13:50;;;;;;;10.80;8.90;;;12.70;99.90;;;;;;5090222;28;20097;-80
2022/07/30 05:16:16;;;;;;;12.02;9.77;;;12.80;99.90;;;;;;5090096;28;20044;-79
2022/07/30 05:18:42;;;;;;;14.00;9.95;;;13.00;99.90;;;;;;5090261;28;20090;-80
2022/07/30 05:21:08;;;;;;;10.88;9.43;;;13.00;99.90;;;;;;5071450;28;20052;-79
2022/07/30 05:23:34;;;;;;;13.75;9.02;;;13.10;99.90;;;;;;5090402;28;20110;-79
2022/07/30 05:26:00;;;;;;;14.63;9.75;;;13.40;99.90;;;;;;5052626;28;1069773;-79
2022/07/30 05:28:26;;;;;;;12.40;10.20;;;13.50;99.90;;;;;;5091465;28;20094;-79
2022/07/30 05:30:52;;;;;;;11.73;9.10;;;13.90;99.90;;;;;;5091174;28;20518;-80
2022/07/30 05:33:19;;;;;;;11.82;9.15;;;13.50;99.90;;;;;;5090859;28;20122;-79
2022/07/30 05:35:45;;;;;;;11.20;9.70;;;13.70;99.90;;;;;;5090204;28;20055;-80
2022/07/30 05:38:11;;;;;;;13.93;9.45;;;13.80;99.90;;;;;;5072696;28;20044;-80
2022/07/30 05:40:36;;;;;;;9.90;8.05;;;13.90;99.90;;;;;;5090657;28;20048;-80
2022/07/30 05:43:02;;;;;;;9.88;8.88;;;14.10;99.90;;;;;;5090429;28;20036;-79
2022/07/30 05:45:28;;;;;;;13.25;9.65;;;14.10;99.90;;;;;;5072311;28;20044;-79
2022/07/30 05:47:54;;;;;;;11.98;9.13;;;14.20;99.90;;;;;;5090478;28;20051;-79
2022/07/30 05:50:20;;;;;;;11.75;8.60;;;14.40;99.90;;;;;;5089961;28;20036;-80
2022/07/30 05:52:46;;;;;;;12.18;9.15;;;14.50;99.90;;;;;;5090292;28;20474;-79
2022/07/30 05:55:11;;;;;;;12.07;9.25;;;14.80;99.90;;;;;;5072182;28;20047;-79
2022/07/30 05:57:37;;;;;;;11.68;9.98;;;14.70;99.90;;;;;;5090076;28;20040;-79
2022/07/30 06:00:06;;;;;;;13.85;10.05;;;14.90;99.90;;;;;;5072284;28;20044;-80
2022/07/30 06:02:31;;;;;;;12.60;9.20;;;15.00;99.90;;;;;;5072231;28;20087;-79
2022/07/30 06:04:57;;;;;;;16.75;11.30;;;15.20;99.90;;;;;;5071695;28;20557;-79
2022/07/30 06:07:23;;;;;;;18.90;11.40;;;15.30;99.90;;;;;;5071478;28;20441;-79
2022/07/30 06:09:49;;;;;;;14.48;9.35;;;15.50;99.90;;;;;;5089550;28;20414;-81
2022/07/30 06:12:14;;;;;;;16.08;10.32;;;15.60;99.90;;;;;;5090061;28;20074;-79
2022/07/30 06:14:40;;;;;;;16.88;10.25;;;15.90;99.90;;;;;;5072208;28;20696;-79
2022/07/30 06:17:06;;;;;;;12.63;10.07;;;15.90;99.90;;;;;;5071901;28;20051;-79
2022/07/30 06:19:31;;;;;;;15.85;10.50;;;16.00;99.90;;;;;;5071472;28;20052;-79
2022/07/30 06:21:57;;;;;;;16.90;10.27;;;16.10;99.90;;;;;;5089750;28;20119;-79
2022/07/30 06:24:22;;;;;;;14.50;9.85;;;16.30;99.90;;;;;;5090160;28;20069;-83
2022/07/30 06:26:48;;;;;;;12.32;9.18;;;16.60;99.90;;;;;;5089942;28;20086;-80
2022/07/30 06:29:14;;;;;;;14.68;8.80;;;16.50;99.90;;;;;;5071264;28;20055;-80
2022/07/30 06:31:40;;;;;;;16.55;10.15;;;16.60;99.90;;;;;;5088994;28;20043;-79
2022/07/30 06:34:06;;;;;;;16.48;10.05;;;16.80;99.90;;;;;;5089832;28;20125;-79
2022/07/30 06:36:31;;;;;;;17.52;8.85;;;17.00;99.90;;;;;;5090124;28;20047;-78
2022/07/30 06:38:57;;;;;;;16.52;9.43;;;17.10;99.90;;;;;;5092668;28;20032;-80
2022/07/30 06:41:23;;;;;;;12.00;7.85;;;17.20;99.90;;;;;;5075984;28;20479;-79
2022/07/30 06:43:49;;;;;;;18.20;8.70;;;17.40;99.90;;;;;;5075848;28;20048;-79
2022/07/30 06:46:15;;;;;;;14.23;8.48;;;17.60;99.90;;;;;;5094039;28;20055;-79
2022/07/30 06:48:42;;;;;;;16.48;8.05;;;17.70;99.90;;;;;;5076168;28;20047;-80
2022/07/30 06:51:07;;;;;;;14.35;8.68;;;17.80;99.90;;;;;;5075480;28;20052;-81
2022/07/30 06:53:33;;;;;;;9.60;7.35;;;18.00;99.90;;;;;;5074832;28;20050;-83
2022/07/30 06:55:58;;;;;;;15.73;8.15;;;18.10;99.90;;;;;;5075713;28;20048;-79
2022/07/30 06:58:24;;;;;;;17.75;8.05;;;18.20;99.90;;;;;;5075638;28;20048;-77
2022/07/30 07:00:50;;;;;;;13.30;7.55;;;18.40;99.90;;;;;;5093207;28;20040;-80
2022/07/30 07:03:15;;;;;;;12.68;6.80;;;18.50;99.90;;;;;;5075763;28;20529;-80
2022/07/30 07:05:41;;;;;;;17.45;7.40;;;18.80;99.90;;;;;;5093622;28;20083;-80
2022/07/30 07:08:07;;;;;;;18.38;7.68;;;19.00;99.90;;;;;;5075290;28;20047;-79
2022/07/30 07:10:32;;;;;;;16.80;6.82;;;19.40;99.90;;;;;;5074924;28;20137;-79
2022/07/30 07:12:59;;;;;;;14.45;6.97;;;19.40;99.90;;;;;;5075071;28;20087;-79
2022/07/30 07:15:25;;;;;;;10.00;7.15;;;19.60;99.90;;;;;;5093548;28;20051;-82
2022/07/30 07:17:51;;;;;;;12.07;6.57;;;19.70;99.90;;;;;;5093405;28;20052;-79
2022/07/30 07:20:17;;;;;;;19.83;6.10;;;19.80;99.90;;;;;;5058136;28;20127;-76
2022/07/30 07:22:42;;;;;;;16.77;7.07;;;19.90;99.90;;;;;;5093220;28;20056;-76
2022/07/30 07:25:08;;;;;;;15.18;5.95;;;20.10;99.90;;;;;;5092768;28;20407;-78
2022/07/30 07:27:36;;;;;;;14.00;6.53;;;20.10;99.90;;;;;;5093434;28;20051;-78
2022/07/30 07:30:02;;;;;;;12.80;6.20;;;20.20;99.90;;;;;;5075407;28;20142;-79
2022/07/30 07:32:28;;;;;;;11.85;6.13;;;20.40;99.90;;;;;;5092918;28;20039;-78
2022/07/30 07:34:53;;;;;;;10.70;5.97;;;20.50;99.90;;;;;;5075019;28;20060;-78
2022/07/30 07:37:19;;;;;;;17.27;5.55;;;20.60;99.90;;;;;;5075142;28;20032;-79
2022/07/30 07:39:44;;;;;;;13.98;5.53;;;20.60;99.90;;;;;;5074481;28;20449;-81
2022/07/30 07:42:10;;;;;;;12.82;5.63;;;20.90;99.90;;;;;;5092854;28;20036;-77
2022/07/30 07:44:36;;;;;;;12.95;6.65;;;20.90;99.90;;;;;;5092921;28;20054;-82
2022/07/30 07:47:01;;;;;;;16.25;6.05;;;20.90;99.90;;;;;;5093105;28;20056;-82
2022/07/30 07:49:27;;;;;;;11.82;5.75;;;20.80;99.90;;;;;;5074458;28;20036;-80
2022/07/30 07:51:52;;;;;;;13.52;6.10;;;21.10;99.90;;;;;;5092763;28;20051;-78
2022/07/30 07:54:18;;;;;;;12.48;5.90;;;21.20;99.90;;;;;;5092808;28;20836;-78
2022/07/30 07:56:44;;;;;;;12.35;5.82;;;21.20;99.90;;;;;;5092406;28;20063;-80
2022/07/30 07:59:10;;;;;;;14.30;5.32;;;21.30;99.90;;;;;;5074795;28;20050;-79
2022/07/30 08:01:36;;;;;;;13.98;5.38;;;21.40;99.90;;;;;;5092784;28;20040;-78
2022/07/30 08:04:01;;;;;;;17.95;4.78;;;21.20;99.90;;;;;;5074581;28;20079;-81
2022/07/30 08:06:27;;;;;;;10.32;4.90;;;21.30;99.90;;;;;;5092825;28;20106;-79
2022/07/30 08:08:54;;;;;;;8.93;4.00;;;21.50;99.90;;;;;;5074739;28;20110;-77
2022/07/30 08:11:19;;;;;;;14.13;4.43;;;21.60;99.90;;;;;;5091890;28;20548;-81
2022/07/30 08:13:45;;;;;;;10.32;4.25;;;21.70;99.90;;;;;;5092576;28;20040;-80
2022/07/30 08:16:13;;;;;;;12.20;4.40;;;22.00;99.90;;;;;;5092608;28;20039;-78
2022/07/30 08:18:41;;;;;;;15.13;4.68;;;22.20;99.90;;;;;;5092489;28;20406;-81
2022/07/30 08:21:07;;;;;;;9.80;3.45;;;22.10;99.90;;;;;;5092215;28;20566;-77
2022/07/30 08:23:33;;;;;;;8.95;3.58;;;21.90;99.90;;;;;;5110956;23;20049;-80
2022/07/30 08:25:58;;;;;;;10.63;3.38;;;21.90;99.90;;;;;;5071837;28;20056;-78
2022/07/30 08:28:25;;;;;;;17.63;3.05;;;22.20;99.90;;;;;;5071981;28;20106;-81
2022/07/30 08:30:51;;;;;;;10.65;3.20;;;22.40;99.90;;;;;;5072034;28;20047;-78
2022/07/30 08:33:17;;;;;;;7.07;3.58;;;22.60;99.90;;;;;;5053959;28;20052;-78
2022/07/30 08:35:42;;;;;;;7.82;2.95;;;22.60;99.90;;;;;;5072034;28;20155;-78
2022/07/30 08:38:08;;;;;;;7.65;3.03;;;22.70;99.90;;;;;;5071644;28;20068;-82
2022/07/30 08:40:34;;;;;;;9.13;2.67;;;22.70;99.90;;;;;;5071695;28;20052;-80
2022/07/30 08:43:04;;;;;;;13.38;3.72;;;23.00;99.90;;;;;;5071556;28;20087;-79
2022/07/30 08:45:31;;;;;;;12.40;2.88;;;23.20;99.90;;;;;;5071461;28;20052;-78
2022/07/30 08:47:59;;;;;;;12.82;3.08;;;23.50;99.90;;;;;;5060810;28;20053;-80
2022/07/30 08:50:25;;;;;;;5.65;2.63;;;23.50;99.90;;;;;;5071746;28;20044;-78
2022/07/30 08:52:54;;;;;;;12.77;2.85;;;23.30;99.90;;;;;;5071292;28;20532;-78
2022/07/30 08:55:21;;;;;;;11.40;2.80;;;23.20;99.90;;;;;;5071500;28;20495;-81
2022/07/30 08:57:47;;;;;;;9.05;2.72;;;23.30;99.90;;;;;;5071464;28;20419;-76
2022/07/30 09:00:14;;;;;;;6.38;2.55;;;23.30;99.90;;;;;;5071030;28;20078;-81
2022/07/30 09:02:39;;;;;;;8.38;3.00;;;23.50;99.90;;;;;;5071375;28;20145;-78
2022/07/30 09:05:06;;;;;;;8.27;2.47;;;23.70;99.90;;;;;;5071265;28;20502;-78
2022/07/30 09:07:33;;;;;;;13.55;2.55;;;23.90;99.90;;;;;;5036497;28;20151;-78
2022/07/30 09:09:59;;;;;;;13.20;3.55;;;24.00;99.90;;;;;;5071314;28;20051;-81
2022/07/30 09:12:31;;;;;;;6.97;2.60;;;23.30;99.90;;;;;;5071244;28;20048;-80
2022/07/30 09:15:19;;;;;;;11.52;3.03;;;23.60;99.90;;;;;;5070834;28;20052;-80
2022/07/30 09:18:03;;;;;;;8.50;2.88;;;23.80;99.90;;;;;;5070986;28;20098;-80
2022/07/30 09:20:37;;;;;;;8.93;2.70;;;24.10;99.90;;;;;;5070794;28;20049;-79
2022/07/30 09:23:05;;;;;;;6.70;2.50;;;24.20;99.90;;;;;;5070385;28;20411;-77
2022/07/30 09:25:40;;;;;;;10.95;3.17;;;24.50;99.90;;;;;;5070811;28;20053;-79
2022/07/30 09:28:08;;;;;;;9.85;2.60;;;24.60;99.90;;;;;;5052624;28;20093;-82
2022/07/30 09:30:52;;;;;;;7.68;2.40;;;24.70;99.90;;;;;;5052235;28;20040;-80
2022/07/30 09:33:33;;;;;;;6.72;2.40;;;25.00;99.90;;;;;;5070192;28;20484;-76
2022/07/30 09:35:59;;;;;;;8.85;2.42;;;25.10;99.90;;;;;;5070415;28;20051;-78
2022/07/30 09:38:26;;;;;;;9.23;2.05;;;25.10;99.90;;;;;;5070447;28;20826;-78
2022/07/30 09:40:53;;;;;;;6.35;2.17;;;25.10;99.90;;;;;;5070492;28;20040;-82
2022/07/30 09:43:19;;;;;;;6.88;1.83;;;25.20;99.90;;;;;;5069710;28;20044;-81
2022/07/30 09:45:54;;;;;;;5.80;1.92;;;25.40;99.90;;;;;;5058697;28;20039;-84
2022/07/30 09:48:25;;;;;;;6.82;2.35;;;25.60;99.90;;;;;;5052176;28;20056;-80
2022/07/30 09:50:52;;;;;;;13.45;2.83;;;25.50;99.90;;;;;;5051730;28;20091;-81
2022/07/30 09:53:18;;;;;;;8.05;2.40;;;25.70;99.90;;;;;;5070335;28;20052;-80
2022/07/30 09:55:44;;;;;;;6.85;2.10;;;25.60;99.90;;;;;;5069553;28;20048;-82
2022/07/30 09:58:11;;;;;;;11.85;2.65;;;25.70;99.90;;;;;;5069953;28;20094;-78
2022/07/30 10:00:37;;;;;;;6.65;2.17;;;25.80;99.90;;;;;;5069703;28;20054;-80
2022/07/30 10:03:24;;;;;;;6.65;2.25;;;26.00;99.90;;;;;;5070132;28;20072;-80
2022/07/30 10:05:52;;;;;;;8.40;2.22;;;26.00;99.90;;;;;;5069880;28;20510;-79
2022/07/30 10:08:18;;;;;;;8.13;2.00;;;26.00;99.90;;;;;;5052067;28;20082;-78
2022/07/30 10:10:44;;;;;;;6.72;2.05;;;26.20;99.90;;;;;;5070102;28;20080;-80
2022/07/30 10:13:13;;;;;;;9.20;2.50;;;25.90;99.90;;;;;;5069802;28;20044;-77
2022/07/30 10:15:40;;;;;;;6.93;2.33;;;26.00;99.90;;;;;;5069276;28;20044;-82
2022/07/30 10:18:06;;;;;;;11.45;2.35;;;26.10;99.90;;;;;;5069877;28;20044;-80
2022/07/30 10:20:32;;;;;;;8.27;2.33;;;26.00;99.90;;;;;;5070146;28;20075;-79
2022/07/30 10:22:58;;;;;;;9.57;2.88;;;26.00;99.90;;;;;;5051369;28;20090;-80
2022/07/30 10:25:26;;;;;;;4.90;1.73;;;25.80;99.90;;;;;;5070039;28;20469;-83
2022/07/30 10:27:52;;;;;;;8.52;2.15;;;25.80;99.90;;;;;;5052082;28;20052;-81
2022/07/30 10:30:18;;;;;;;9.85;2.30;;;25.80;99.90;;;;;;5051923;28;20063;-77
2022/07/30 10:32:45;;;;;;;5.85;2.15;;;26.00;99.90;;;;;;5069647;28;20094;-81
2022/07/30 10:35:12;;;;;;;8.00;2.35;;;26.00;99.90;;;;;;5069860;28;20045;-81
2022/07/30 10:37:42;;;;;;;8.65;2.17;;;26.00;99.80;;;;;;5051784;28;20051;-81
2022/07/30 10:40:16;;;;;;;5.15;1.70;;;26.30;99.90;;;;;;5069759;28;20052;-78
2022/07/30 10:43:12;;;;;;;8.82;1.95;;;26.30;99.30;;;;;;5069452;28;20143;-81
2022/07/30 10:46:04;;;;;;;8.65;1.98;;;26.40;98.60;;;;;;5050099;28;20041;-77
2022/07/30 10:48:33;;;;;;;7.97;2.25;;;26.20;98.60;;;;;;5069377;28;20067;-78
2022/07/30 10:50:59;;;;;;;8.98;2.28;;;26.20;99.20;;;;;;5069570;28;20119;-81
2022/07/30 10:53:51;;;;;;;7.25;2.00;;;26.20;99.20;;;;;;5069608;28;20711;-77
2022/07/30 10:56:22;;;;;;;6.63;2.00;;;26.30;98.60;;;;;;5064595;28;20528;-80
2022/07/30 10:59:04;;;;;;;6.65;1.95;;;26.50;98.80;;;;;;5069358;28;20046;-81
2022/07/30 11:01:48;;;;;;;11.50;1.75;;;26.80;98.20;;;;;;5069557;28;20040;-82
2022/07/30 11:04:21;;;;;;;4.13;1.60;;;27.00;97.70;;;;;;5051069;28;20052;-79
2022/07/30 11:06:48;;;;;;;4.80;1.65;;;27.10;97.10;;;;;;5034769;28;20121;-81
2022/07/30 11:09:36;;;;;;;7.68;2.15;;;26.80;96.30;;;;;;5051841;28;20036;-77
2022/07/30 11:12:04;;;;;;;9.73;1.65;;;26.80;96.20;;;;;;5069564;28;20048;-78
2022/07/30 11:14:45;;;;;;;5.75;1.20;;;26.80;97.10;;;;;;5050804;28;20499;-82
2022/07/30 11:17:12;;;;;;;5.20;1.70;;;27.00;96.30;;;;;;5049834;28;20048;-79
2022/07/30 11:20:06;;;;;;;5.97;1.17;;;27.10;96.60;;;;;;5057088;28;20037;-81
2022/07/30 11:23:06;;;;;;;6.25;1.50;;;27.10;94.50;;;;;;5069325;28;20069;-85
2022/07/30 11:25:28;;;;;;;7.55;1.73;;;27.10;95.20;;;;;;5051346;28;20487;-87
2022/07/30 11:27:54;;;;;;;5.72;1.33;;;26.70;95.70;;;;;;5072162;28;20052;-85
2022/07/30 11:30:20;;;;;;;6.20;1.70;;;26.90;96.00;;;;;;5055286;28;20398;-81
2022/07/30 11:33:15;;;;;;;6.55;1.58;;;27.10;95.70;;;;;;5072815;28;20055;-78
2022/07/30 11:35:42;;;;;;;9.70;1.83;;;27.20;95.80;;;;;;5052491;28;20045;-82
2022/07/30 11:38:14;;;;;;;7.32;1.90;;;27.30;96.10;;;;;;5035043;28;20525;-82
2022/07/30 11:40:49;;;;;;;7.47;1.90;;;27.30;95.30;;;;;;5034983;28;20045;-80
2022/07/30 11:43:29;;;;;;;5.45;1.77;;;27.20;95.50;;;;;;5034695;28;20077;-83
2022/07/30 11:46:14;;;;;;;4.60;1.80;;;27.40;94.80;;;;;;5052710;28;20514;-82
2022/07/30 11:48:55;;;;;;;8.68;2.15;;;27.20;94.50;;;;;;5034634;28;20049;-80
2022/07/30 11:51:21;;;;;;;5.57;1.73;;;27.30;93.80;;;;;;5052673;28;20053;-81
2022/07/30 11:54:03;;;;;;;6.22;1.30;;;27.40;94.60;;;;;;5052532;28;20045;-77
2022/07/30 11:56:29;;;;;;;7.70;1.65;;;27.30;93.60;;;;;;5052476;28;20049;-84
2022/07/30 11:59:06;;;;;;;6.63;1.70;;;27.00;94.20;;;;;;5052553;28;20049;-81
2022/07/30 12:01:33;;;;;;;7.20;1.95;;;26.70;93.70;;;;;;5052591;28;20037;-78
2022/07/30 12:04:05;;;;;;;7.95;1.88;;;26.20;93.70;;;;;;5052076;28;20163;-83
2022/07/30 12:06:32;;;;;;;6.78;1.52;;;26.40;94.60;;;;;;5051823;28;20048;-79
2022/07/30 12:08:58;;;;;;;6.30;1.58;;;26.40;94.20;;;;;;5034009;28;20059;-83
2022/07/30 12:11:30;;;;;;;7.43;1.88;;;26.60;94.40;;;;;;5051061;28;20095;-82
2022/07/30 12:14:01;;;;;;;12.38;1.83;;;26.50;94.30;;;;;;5064655;28;20045;-80
2022/07/30 12:16:29;;;;;;;4.95;1.60;;;26.50;94.20;;;;;;5072003;28;20048;-79
2022/07/30 12:19:03;;;;;;;6.68;1.63;;;26.30;94.00;;;;;;5053983;28;20048;-80
2022/07/30 12:21:29;;;;;;;8.52;1.98;;;26.50;94.40;;;;;;5071912;28;20048;-78
2022/07/30 12:24:00;;;;;;;5.75;1.52;;;26.60;94.10;;;;;;5071646;28;20070;-81
2022/07/30 12:26:28;;;;;;;7.38;1.40;;;26.80;93.90;;;;;;5053816;28;20409;-84
2022/07/30 12:28:59;;;;;;;8.35;2.08;;;26.90;94.10;;;;;;5053821;28;20388;-78
2022/07/30 12:31:25;;;;;;;6.68;1.30;;;26.90;93.50;;;;;;5054076;28;20044;-81
2022/07/30 12:33:51;;;;;;;6.57;1.90;;;26.90;93.70;;;;;;5053550;28;20048;-77
2022/07/30 12:36:29;;;;;;;6.07;1.60;;;26.80;93.40;;;;;;5070437;28;20052;-78
2022/07/30 12:38:56;;;;;;;3.30;1.40;;;26.70;93.30;;;;;;5071028;28;20048;-81
2022/07/30 12:41:38;;;;;;;6.85;1.20;;;26.70;93.20;;;;;;5071567;28;20048;-77
2022/07/30 12:44:04;;;;;;;5.80;1.30;;;26.90;93.20;;;;;;5071152;28;20041;-81
2022/07/30 12:46:40;;;;;;;5.60;1.60;;;27.00;93.20;;;;;;5071364;28;20052;-81
2022/07/30 12:49:06;;;;;;;4.50;1.30;;;27.10;92.50;;;;;;5071821;28;20536;-81
2022/07/30 12:51:48;;;;;;;5.93;1.30;;;27.10;93.10;;;;;;5071330;28;20047;-78